Terminal Aerodrome Forecast
Issued by NWS

Home | Current Version | Previous Version | Text Only | Print | Product List | Glossary Off
Versions: 1 2 3 4 5 6 7 8 9 10 11 12 13 14 15 16 17 18 19 20 21 22 23 24 25 26

000
FTUS43 KABR 160900 AAA
TAFMBG
TAF AMD
KMBG 160946Z 1610/1706 35015KT P6SM OVC020
      TEMPO 1610/1614 P6SM -SN
     FM162200 VRB06KT P6SM OVC015=

USA.gov is the U.S. government's official web portal to all federal, state and local government web resources and services.